Time;durP1;ratioP1;P1;durP2;ratioP2;P2;SDS_P1;SDS_P2;PMS_P1;PMS_P2;Temp;Humidity;BMP_temperature;BMP_pressure;BME280_temperature;BME280_humidity;BME280_pressure;Samples;Min_cycle;Max_cycle;Signal;HPM_P1;HPM_P2
2022/08/26 00:00:41;;;;;;;1999.90;999.90;;;;;;;20.10;100.00;97692.25;5081285;28;20013;-76
2022/08/26 00:03:07;;;;;;;1999.90;999.90;;;;;;;20.13;100.00;97688.75;5081194;28;20031;-77
2022/08/26 00:05:33;;;;;;;1999.90;999.90;;;;;;;20.17;100.00;97684.88;5081331;28;20041;-79
2022/08/26 00:08:01;;;;;;;1999.90;999.90;;;;;;;20.01;100.00;97686.91;5080940;28;20013;-76
2022/08/26 00:10:27;;;;;;;1999.90;999.90;;;;;;;20.10;100.00;97687.50;5080995;28;20016;-76
2022/08/26 00:12:53;;;;;;;1999.90;999.90;;;;;;;20.10;100.00;97684.72;5080359;28;20572;-80
2022/08/26 00:15:21;;;;;;;1999.90;999.90;;;;;;;20.08;100.00;97692.59;5080856;28;20076;-76
2022/08/26 00:17:48;;;;;;;1999.90;999.90;;;;;;;19.97;100.00;97677.69;5080694;28;20017;-75
2022/08/26 00:20:16;;;;;;;1999.90;999.90;;;;;;;20.02;100.00;97680.19;5080944;28;20020;-79
2022/08/26 00:22:42;;;;;;;1999.90;999.90;;;;;;;19.93;100.00;97673.22;5081072;28;20024;-79
2022/08/26 00:25:08;;;;;;;1999.90;999.90;;;;;;;19.95;100.00;97670.91;5080794;28;20020;-77
2022/08/26 00:27:34;;;;;;;1999.90;999.90;;;;;;;20.02;100.00;97662.72;5080563;28;20072;-79
2022/08/26 00:30:06;;;;;;;1999.90;999.90;;;;;;;19.89;100.00;97662.03;5080621;28;20021;-81
2022/08/26 00:32:32;;;;;;;1999.90;999.90;;;;;;;19.71;100.00;97653.31;5080737;28;20068;-76
2022/08/26 00:34:57;;;;;;;1999.90;999.90;;;;;;;19.74;100.00;97660.91;5080426;28;20039;-77
2022/08/26 00:37:22;;;;;;;1999.90;999.90;;;;;;;19.72;100.00;97666.03;5080473;28;20081;-76
2022/08/26 00:39:48;;;;;;;1999.90;999.90;;;;;;;19.82;100.00;97666.63;5080452;28;20016;-81
2022/08/26 00:42:13;;;;;;;1999.90;999.90;;;;;;;19.83;100.00;97668.25;5079783;28;20009;-77
2022/08/26 00:44:39;;;;;;;1999.90;999.90;;;;;;;19.76;100.00;97663.34;5080299;28;20028;-76
2022/08/26 00:47:08;;;;;;;1999.90;999.90;;;;;;;19.72;100.00;97673.56;5079815;28;20040;-78
2022/08/26 00:49:38;;;;;;;1999.90;999.90;;;;;;;19.81;100.00;97665.84;5079638;28;20019;-78
2022/08/26 00:52:09;;;;;;;1999.90;999.90;;;;;;;19.86;100.00;97671.09;5080256;28;20041;-76
2022/08/26 00:54:44;;;;;;;1999.90;999.90;;;;;;;19.90;100.00;97669.19;5080609;28;20041;-77
2022/08/26 00:57:12;;;;;;;1999.90;999.90;;;;;;;20.02;100.00;97677.41;5079757;28;20008;-75
2022/08/26 00:59:38;;;;;;;1999.90;999.90;;;;;;;20.10;100.00;97673.63;5079506;28;20045;-75
2022/08/26 01:02:05;;;;;;;1999.90;999.90;;;;;;;20.15;100.00;97680.84;5079512;28;20088;-75
2022/08/26 01:04:33;;;;;;;1999.90;999.90;;;;;;;20.27;100.00;97678.75;5079468;28;20040;-79
2022/08/26 01:06:59;;;;;;;1999.90;999.90;;;;;;;20.21;100.00;97679.38;5080000;28;20013;-80
2022/08/26 01:09:24;;;;;;;1999.90;999.90;;;;;;;20.12;100.00;97676.84;5079896;28;20036;-75
2022/08/26 01:11:54;;;;;;;1999.90;999.90;;;;;;;20.13;100.00;97684.00;5079746;28;20050;-77
2022/08/26 01:14:21;;;;;;;1999.90;999.90;;;;;;;20.14;100.00;97676.47;5079317;28;20009;-77
2022/08/26 01:16:47;;;;;;;1999.90;999.90;;;;;;;20.15;100.00;97675.28;5079795;28;20020;-79
2022/08/26 01:19:20;;;;;;;1999.90;999.90;;;;;;;20.16;100.00;97674.13;5079774;28;20021;-76
2022/08/26 01:21:54;;;;;;;1999.90;999.90;;;;;;;20.20;100.00;97680.56;5079703;28;20013;-75
2022/08/26 01:24:19;;;;;;;1999.90;999.90;;;;;;;20.19;100.00;97677.00;5080018;28;20080;-76
2022/08/26 01:26:45;;;;;;;1999.90;999.90;;;;;;;20.16;100.00;97672.16;5079174;28;20017;-76
2022/08/26 01:29:18;;;;;;;1999.90;999.90;;;;;;;20.19;100.00;97676.19;5079394;28;20009;-80
2022/08/26 01:31:54;;;;;;;1999.90;999.90;;;;;;;20.15;100.00;97669.75;5079172;28;20025;-81
2022/08/26 01:34:33;;;;;;;1999.90;999.90;;;;;;;20.09;100.00;97677.56;5078423;28;20020;-76
2022/08/26 01:37:24;;;;;;;1999.90;999.90;;;;;;;20.08;100.00;97680.72;5067779;28;20048;-75
2022/08/26 01:39:52;;;;;;;1999.90;999.90;;;;;;;20.00;100.00;97679.75;5079380;28;20020;-75
2022/08/26 01:42:19;;;;;;;1999.90;999.90;;;;;;;19.89;100.00;97666.81;5079208;28;20013;-76
2022/08/26 01:44:50;;;;;;;1999.90;999.90;;;;;;;19.98;100.00;97673.75;5078722;28;20013;-78
2022/08/26 01:47:16;;;;;;;1999.90;999.90;;;;;;;19.93;100.00;97668.47;5079322;28;20021;-75
2022/08/26 01:49:44;;;;;;;1999.90;999.90;;;;;;;19.89;100.00;97669.59;5079174;28;20033;-75
2022/08/26 01:52:15;;;;;;;1999.90;999.90;;;;;;;19.94;100.00;97672.88;5079246;28;20021;-78
2022/08/26 01:54:40;;;;;;;1999.90;999.90;;;;;;;19.94;100.00;97672.06;5078782;28;20026;-77
2022/08/26 01:57:06;;;;;;;1999.90;999.90;;;;;;;19.88;100.00;97666.00;5078824;28;20017;-77
2022/08/26 01:59:33;;;;;;;1999.90;999.90;;;;;;;19.83;100.00;97673.81;5079004;28;20524;-77
2022/08/26 02:02:00;;;;;;;1999.90;999.90;;;;;;;19.84;100.00;97669.84;5078959;28;20017;-76
2022/08/26 02:04:31;;;;;;;1999.90;999.90;;;;;;;19.81;100.00;97660.28;5078589;28;20044;-76
2022/08/26 02:07:01;;;;;;;1999.90;999.90;;;;;;;19.83;100.00;97663.50;5078897;28;20047;-76
2022/08/26 02:09:26;;;;;;;1999.90;999.90;;;;;;;19.86;100.00;97670.31;5078035;28;20024;-76
2022/08/26 02:11:51;;;;;;;1999.90;999.90;;;;;;;19.84;100.00;97670.66;5078582;28;20029;-78
2022/08/26 02:14:27;;;;;;;1999.90;999.90;;;;;;;19.88;100.00;97660.44;5078715;28;20044;-80
2022/08/26 02:16:54;;;;;;;1999.90;999.90;;;;;;;19.84;100.00;97662.34;5078675;28;20039;-75
2022/08/26 02:19:28;;;;;;;1999.90;999.90;;;;;;;19.94;100.00;97664.53;5078598;28;20052;-77
2022/08/26 02:21:54;;;;;;;1999.90;999.90;;;;;;;19.96;100.00;97667.75;5078663;28;20005;-80
2022/08/26 02:24:23;;;;;;;1999.90;999.90;;;;;;;19.92;100.00;97671.63;5078763;28;20021;-79
2022/08/26 02:26:49;;;;;;;1999.90;999.90;;;;;;;19.86;100.00;97667.53;5077845;28;20028;-76
2022/08/26 02:29:24;;;;;;;1999.90;999.90;;;;;;;19.81;100.00;97671.38;5078433;28;20041;-82
2022/08/26 02:31:51;;;;;;;1999.90;999.90;;;;;;;19.68;100.00;97665.16;5078495;28;20009;-77
2022/08/26 02:34:24;;;;;;;1999.90;999.90;;;;;;;19.72;100.00;97666.03;5078363;28;20081;-78
2022/08/26 02:36:50;;;;;;;1999.90;999.90;;;;;;;19.72;100.00;97663.25;5078161;28;20058;-84
2022/08/26 02:39:15;;;;;;;1999.90;999.90;;;;;;;19.57;100.00;97657.75;5078414;28;20033;-77
2022/08/26 02:41:41;;;;;;;1999.90;999.90;;;;;;;19.57;100.00;97655.78;5078112;28;20037;-77
2022/08/26 02:44:07;;;;;;;1999.90;999.90;;;;;;;19.62;100.00;97651.91;5078082;28;20054;-80
2022/08/26 02:46:33;;;;;;;1999.90;999.90;;;;;;;19.66;100.00;97656.38;5078282;28;20009;-76
2022/08/26 02:49:00;;;;;;;1999.90;999.90;;;;;;;19.71;100.00;97660.84;5078206;28;20039;-76
2022/08/26 02:51:25;;;;;;;1999.90;999.90;;;;;;;19.68;100.00;97661.56;5078061;28;20025;-75
2022/08/26 02:53:51;;;;;;;1999.90;999.90;;;;;;;19.57;100.00;97668.84;5078520;28;20023;-77
2022/08/26 02:56:16;;;;;;;1999.90;999.90;;;;;;;19.52;100.00;97666.34;5078102;28;20015;-78
2022/08/26 02:58:41;;;;;;;1999.90;999.90;;;;;;;19.41;100.00;97656.97;5078033;28;20063;-75
2022/08/26 03:01:07;;;;;;;1999.90;999.90;;;;;;;19.50;100.00;97660.34;5078016;28;20084;-76
2022/08/26 03:03:32;;;;;;;1999.90;999.90;;;;;;;19.48;100.00;97663.50;5077654;28;20016;-76
2022/08/26 03:05:57;;;;;;;1999.90;999.90;;;;;;;19.53;100.00;97659.63;5078001;28;20016;-75
2022/08/26 03:08:23;;;;;;;1999.90;999.90;;;;;;;19.57;100.00;97661.34;5078012;28;20043;-81
2022/08/26 03:10:48;;;;;;;1999.90;999.90;;;;;;;19.56;100.00;97661.69;5077602;28;20057;-79
2022/08/26 03:13:14;;;;;;;1999.90;999.90;;;;;;;19.53;100.00;97654.09;5077919;28;20020;-78
2022/08/26 03:15:40;;;;;;;1999.90;999.90;;;;;;;19.58;100.00;97653.78;5077731;28;20009;-76
2022/08/26 03:18:06;;;;;;;1999.90;999.90;;;;;;;19.50;100.00;97652.84;5077796;28;20009;-80
2022/08/26 03:20:33;;;;;;;1999.90;999.90;;;;;;;19.51;100.00;97662.78;5080216;28;20001;-81
2022/08/26 03:22:58;;;;;;;1999.90;999.90;;;;;;;19.52;100.00;97661.59;5081266;28;20029;-82
2022/08/26 03:25:25;;;;;;;1999.90;999.90;;;;;;;19.33;100.00;97660.72;5081573;28;20017;-76
2022/08/26 03:27:51;;;;;;;1999.90;999.90;;;;;;;19.36;100.00;97668.31;5081940;28;20024;-78
2022/08/26 03:33:01;;;;;;;1999.90;999.90;;;;;;;19.47;100.00;97661.88;5081792;28;20028;-78
2022/08/26 03:35:27;;;;;;;1999.90;999.90;;;;;;;19.36;100.00;97649.69;5081223;28;20009;-80
2022/08/26 03:37:52;;;;;;;1999.90;999.90;;;;;;;19.35;100.00;97650.88;5081626;28;20035;-82
2022/08/26 03:40:18;;;;;;;1999.90;999.90;;;;;;;19.41;100.00;97652.22;5081437;28;20009;-78
2022/08/26 03:42:44;;;;;;;1999.90;999.90;;;;;;;19.41;100.00;97651.41;5081746;28;20041;-79
2022/08/26 03:45:10;;;;;;;1999.90;999.90;;;;;;;19.38;100.00;97650.16;5081329;28;20020;-78
2022/08/26 03:47:37;;;;;;;1999.90;999.90;;;;;;;19.53;100.00;97649.34;5080947;28;20012;-78
2022/08/26 03:50:05;;;;;;;1999.90;999.90;;;;;;;19.59;100.00;97647.09;5080977;28;20076;-77
2022/08/26 03:52:30;;;;;;;1999.90;999.90;;;;;;;19.64;100.00;97649.59;5081526;28;20016;-76
2022/08/26 03:54:56;;;;;;;1999.90;999.90;;;;;;;19.67;100.00;97648.88;5081679;28;20021;-82
2022/08/26 03:57:21;;;;;;;1999.90;999.90;;;;;;;19.62;100.00;97652.72;5081487;28;20029;-81
2022/08/26 03:59:47;;;;;;;1999.90;999.90;;;;;;;19.75;100.00;97653.41;5081401;28;20009;-75
2022/08/26 04:02:13;;;;;;;1999.90;999.90;;;;;;;19.70;100.00;97645.38;5081221;28;20077;-77
2022/08/26 04:04:38;;;;;;;1999.90;999.90;;;;;;;19.64;100.00;97658.69;5081022;28;20055;-81
2022/08/26 04:07:03;;;;;;;1999.90;999.90;;;;;;;19.65;100.00;97656.72;5081103;28;20017;-83
2022/08/26 04:09:29;;;;;;;1999.90;999.90;;;;;;;19.64;100.00;97655.16;5080492;28;20017;-79
2022/08/26 04:11:57;;;;;;;1999.90;999.90;;;;;;;19.77;100.00;97643.53;5080899;28;20033;-79
2022/08/26 04:14:24;;;;;;;1999.90;999.90;;;;;;;19.94;100.00;97653.44;5080958;28;20019;-78
2022/08/26 04:16:51;;;;;;;1999.90;999.90;;;;;;;19.84;100.00;97658.75;5080941;28;20009;-79
2022/08/26 04:19:18;;;;;;;1999.90;999.90;;;;;;;19.74;100.00;97654.56;5080395;28;20032;-75
2022/08/26 04:21:47;;;;;;;1999.90;999.90;;;;;;;19.82;100.00;97653.56;5080333;28;20088;-82
2022/08/26 04:24:14;;;;;;;1999.90;999.90;;;;;;;19.90;100.00;97662.84;5081044;28;20032;-82
2022/08/26 04:26:41;;;;;;;1999.90;999.90;;;;;;;19.67;100.00;97662.75;5080704;28;20077;-81
2022/08/26 04:29:13;;;;;;;1999.90;999.90;;;;;;;19.66;100.00;97658.34;5080515;28;20028;-77
2022/08/26 04:31:40;;;;;;;1999.90;999.90;;;;;;;19.77;100.00;97660.19;5079407;28;20017;-76
2022/08/26 04:34:06;;;;;;;1999.90;999.90;;;;;;;19.67;100.00;97663.53;5080611;28;20020;-75
2022/08/26 04:36:33;;;;;;;1999.90;999.90;;;;;;;19.83;100.00;97668.25;5080120;28;20009;-80
2022/08/26 04:39:00;;;;;;;1999.90;999.90;;;;;;;19.85;100.00;97666.72;5080443;28;20069;-78
2022/08/26 04:41:25;;;;;;;1999.90;999.90;;;;;;;19.83;100.00;97668.25;5080478;28;20013;-74
2022/08/26 04:43:51;;;;;;;1999.90;999.90;;;;;;;19.89;100.00;97661.25;5079778;28;20035;-77
2022/08/26 04:46:21;;;;;;;1999.90;999.90;;;;;;;20.16;100.00;97661.06;5080256;28;20017;-77
2022/08/26 04:48:47;;;;;;;1999.90;999.90;;;;;;;20.18;100.00;97660.66;5080168;28;20077;-77
2022/08/26 04:51:13;;;;;;;1999.90;999.90;;;;;;;20.22;100.00;97659.59;5080234;28;20032;-76
2022/08/26 04:53:39;;;;;;;1999.90;999.90;;;;;;;20.16;100.00;97647.16;5080303;28;20029;-84
2022/08/26 04:56:04;;;;;;;1999.90;999.90;;;;;;;20.08;100.00;97658.50;5080377;28;20061;-74
2022/08/26 04:58:30;;;;;;;1999.90;999.90;;;;;;;20.21;100.00;97669.09;5080109;28;20033;-76
2022/08/26 05:00:56;;;;;;;1999.90;999.90;;;;;;;20.40;100.00;97661.94;5080152;28;20036;-80
2022/08/26 05:03:23;;;;;;;1999.90;999.90;;;;;;;20.45;100.00;97668.03;5079954;28;20073;-76
2022/08/26 05:05:49;;;;;;;1999.90;999.90;;;;;;;20.48;100.00;97669.25;5079888;28;20020;-75
2022/08/26 05:08:16;;;;;;;1999.90;999.90;;;;;;;20.54;100.00;97670.56;5080115;28;20009;-76
2022/08/26 05:10:47;;;;;;;1999.90;999.90;;;;;;;20.65;100.00;97666.00;5079788;28;20075;-76
2022/08/26 05:13:14;;;;;;;1999.90;999.90;;;;;;;20.66;100.00;97673.19;5079838;28;20032;-80
2022/08/26 05:15:40;;;;;;;1999.90;999.90;;;;;;;20.69;100.00;97678.00;5079955;28;20021;-75
2022/08/26 05:18:06;;;;;;;1999.90;999.90;;;;;;;20.66;100.00;97671.22;5079455;28;20008;-75
2022/08/26 05:20:32;;;;;;;1999.90;999.90;;;;;;;20.69;100.00;97680.78;5079318;28;20005;-74
2022/08/26 05:22:59;;;;;;;1999.90;999.90;;;;;;;20.74;100.00;97680.47;5079752;28;20029;-76
2022/08/26 05:25:26;;;;;;;1999.90;999.90;;;;;;;20.68;100.00;97677.19;5080186;28;20021;-76
2022/08/26 05:27:51;;;;;;;1999.90;999.90;;;;;;;20.73;100.00;97681.69;5079581;28;20013;-75
2022/08/26 05:30:17;;;;;;;1999.90;999.90;;;;;;;20.73;100.00;97665.81;5079673;28;20044;-77
2022/08/26 05:32:42;;;;;;;1999.90;999.90;;;;;;;20.90;100.00;97675.63;5079651;28;20009;-73
2022/08/26 05:35:08;;;;;;;1999.90;999.90;;;;;;;20.99;100.00;97676.19;5079061;28;20024;-75
2022/08/26 05:37:33;;;;;;;1999.90;999.90;;;;;;;21.00;100.00;97677.81;5079348;28;20027;-78
2022/08/26 05:40:01;;;;;;;1999.90;999.90;;;;;;;21.05;100.00;97677.47;5079512;28;20005;-74
2022/08/26 05:42:27;;;;;;;1999.90;999.90;;;;;;;21.12;100.00;97683.22;5078346;28;20012;-75
2022/08/26 05:44:53;;;;;;;1999.90;999.90;;;;;;;21.32;100.00;97689.50;5078509;28;20017;-75
2022/08/26 05:47:18;;;;;;;1999.90;999.90;;;;;;;21.43;100.00;97684.09;5079320;28;20032;-77
2022/08/26 05:49:44;;;;;;;1999.90;999.90;;;;;;;21.37;100.00;97683.63;5079240;28;20072;-75
2022/08/26 05:52:09;;;;;;;1999.90;999.90;;;;;;;21.27;100.00;97681.47;5079314;28;20009;-76
2022/08/26 05:54:37;;;;;;;1999.90;999.90;;;;;;;21.42;100.00;97680.53;5079587;28;20028;-75
2022/08/26 05:57:03;;;;;;;1999.90;999.90;;;;;;;21.48;100.00;97692.97;5078945;28;20051;-77
2022/08/26 05:59:28;;;;;;;1999.90;999.90;;;;;;;21.51;100.00;97688.63;5079142;28;20017;-77
2022/08/26 06:01:54;;;;;;;1999.90;999.90;;;;;;;21.53;100.00;97689.06;5078415;28;20017;-75
2022/08/26 06:04:19;;;;;;;1999.90;999.90;;;;;;;21.58;100.00;97683.19;5078928;28;20013;-74
2022/08/26 06:06:44;;;;;;;1999.90;999.90;;;;;;;21.39;100.00;97688.84;5078409;28;20021;-76
2022/08/26 06:09:10;;;;;;;1999.90;999.90;;;;;;;21.44;100.00;97691.28;5078994;28;20009;-79
2022/08/26 06:11:35;;;;;;;1999.90;999.90;;;;;;;21.35;100.00;97686.78;5077786;28;20033;-84
2022/08/26 06:14:06;;;;;;;1999.90;999.90;;;;;;;21.51;100.00;97680.28;5078735;28;20040;-75
2022/08/26 06:16:37;;;;;;;1999.90;999.90;;;;;;;21.88;100.00;97690.44;5078392;28;20005;-74
2022/08/26 06:19:03;;;;;;;1999.90;999.90;;;;;;;22.08;100.00;97681.97;5078676;28;20009;-74
2022/08/26 06:21:31;;;;;;;1999.90;999.90;;;;;;;22.58;100.00;97688.97;5078599;28;20020;-76
2022/08/26 06:26:54;;;;;;;1999.90;999.90;;;;;;;22.66;100.00;97685.09;5078580;28;20047;-76
2022/08/26 06:29:21;;;;;;;1999.90;999.90;;;;;;;22.77;100.00;97672.09;5078463;28;20012;-75
2022/08/26 06:31:47;;;;;;;1999.90;999.90;;;;;;;22.92;100.00;97679.41;5077584;28;20076;-78
2022/08/26 06:34:13;;;;;;;1999.90;999.90;;;;;;;22.87;100.00;97677.75;5057294;28;20029;-79
2022/08/26 06:36:43;;;;;;;1999.90;999.90;;;;;;;22.94;100.00;97672.25;5050643;28;20032;-79
2022/08/26 06:39:11;;;;;;;1999.90;999.90;;;;;;;23.13;100.00;97671.25;5051693;28;20028;-78
2022/08/26 06:41:38;;;;;;;1999.90;999.90;;;;;;;23.35;100.00;97672.25;5052136;28;20032;-79
2022/08/26 06:44:05;;;;;;;1999.90;999.90;;;;;;;22.95;100.00;97670.28;5055749;28;20115;-80
2022/08/26 06:46:30;;;;;;;1999.90;999.90;;;;;;;23.00;100.00;97661.53;5057530;28;20051;-80
2022/08/26 06:48:59;;;;;;;1999.90;999.90;;;;;;;23.49;100.00;97668.81;5055554;28;20033;-80
2022/08/26 06:51:27;;;;;;;1999.90;999.90;;;;;;;23.74;100.00;97672.59;5057160;28;20025;-79
2022/08/26 06:53:57;;;;;;;1999.90;999.90;;;;;;;24.02;100.00;97674.75;5056520;28;20124;-80
2022/08/26 06:56:25;;;;;;;1999.90;999.90;;;;;;;23.94;100.00;97683.09;5051432;28;20025;-80
2022/08/26 06:58:51;;;;;;;1999.90;999.90;;;;;;;24.08;100.00;97676.78;5055826;28;20039;-78
2022/08/26 07:01:25;;;;;;;1999.90;999.90;;;;;;;24.44;100.00;97673.00;5057041;28;20081;-78
2022/08/26 07:03:53;;;;;;;1999.90;999.90;;;;;;;24.63;100.00;97685.84;5057990;28;20033;-79
2022/08/26 07:06:21;;;;;;;1999.90;999.90;;;;;;;24.74;98.72;97674.69;5050892;28;20041;-78
2022/08/26 07:08:48;;;;;;;1999.90;999.90;;;;;;;24.82;98.73;97673.53;5053365;28;20092;-77
2022/08/26 07:11:15;;;;;;;1999.90;999.90;;;;;;;25.24;96.72;97665.25;5050552;28;20485;-80
2022/08/26 07:13:40;;;;;;;1999.90;999.90;;;;;;;25.64;91.79;97660.44;5050069;28;20100;-79
2022/08/26 07:16:07;;;;;;;1999.90;999.90;;;;;;;26.36;87.49;97668.34;5051050;28;20068;-79
2022/08/26 07:18:34;;;;;;;1999.90;999.90;;;;;;;26.58;85.16;97675.47;5049282;28;20457;-77
2022/08/26 07:21:05;;;;;;;1999.90;999.90;;;;;;;26.69;84.01;97678.22;5051411;28;20174;-79
2022/08/26 07:23:31;;;;;;;1999.90;999.90;;;;;;;27.63;78.97;97679.63;5050056;28;20544;-79
2022/08/26 07:26:09;;;;;;;1999.90;999.90;;;;;;;28.49;70.33;97680.41;5050244;28;20137;-77
2022/08/26 07:28:35;;;;;;;1999.90;999.90;;;;;;;29.54;65.24;97674.53;5049753;28;20432;-78
2022/08/26 07:31:11;;;;;;;1999.90;999.90;;;;;;;29.93;62.01;97675.91;5049746;28;20021;-77
2022/08/26 07:33:37;;;;;;;1999.90;999.90;;;;;;;29.23;63.75;97684.25;5049823;28;20111;-77
2022/08/26 07:36:04;;;;;;;1999.90;999.90;;;;;;;28.12;67.73;97674.78;5049691;28;20039;-79
2022/08/26 07:38:30;;;;;;;1999.90;999.90;;;;;;;27.36;70.51;97663.78;5049616;28;20074;-77
2022/08/26 07:40:55;;;;;;;1999.90;999.90;;;;;;;27.37;70.96;97666.19;5049015;28;20028;-77
2022/08/26 07:43:21;;;;;;;1999.90;999.90;;;;;;;28.16;68.16;97670.72;5050095;28;20036;-77
2022/08/26 07:45:46;;;;;;;1999.90;999.90;;;;;;;28.63;64.61;97668.94;5048400;28;20028;-77
2022/08/26 07:48:11;;;;;;;1999.90;999.90;;;;;;;29.11;63.57;97663.09;5048501;28;20116;-77
2022/08/26 07:50:41;;;;;;;1999.90;999.90;;;;;;;29.36;62.84;97674.00;5048449;28;20032;-78
2022/08/26 07:53:07;;;;;;;1999.90;999.90;;;;;;;28.92;63.98;97665.78;5048654;28;20025;-77
2022/08/26 07:55:33;;;;;;;1999.90;999.90;;;;;;;31.09;56.72;97667.94;5050165;28;20021;-80
2022/08/26 07:57:59;;;;;;;1999.90;999.90;;;;;;;32.23;53.06;97665.94;5048162;28;20388;-80
2022/08/26 08:00:24;;;;;;;1999.90;999.90;;;;;;;31.16;54.64;97664.16;5049752;28;20029;-81
2022/08/26 08:02:50;;;;;;;1999.90;999.90;;;;;;;32.33;51.54;97676.16;5049689;28;20380;-80
2022/08/26 08:05:21;;;;;;;1999.90;999.90;;;;;;;33.68;48.13;97670.91;5049325;28;20835;-78
2022/08/26 08:07:47;;;;;;;1999.90;999.90;;;;;;;33.52;46.40;97662.47;5052275;28;20033;-79
2022/08/26 08:10:19;;;;;;;1999.90;999.90;;;;;;;33.04;46.82;97657.13;5053406;28;20032;-78
2022/08/26 08:12:45;;;;;;;1999.90;999.90;;;;;;;34.16;43.74;97666.03;5053413;28;20037;-79
2022/08/26 08:15:12;;;;;;;1999.90;999.90;;;;;;;34.83;42.10;97663.59;5053111;28;20036;-79
2022/08/26 08:17:39;;;;;;;1999.90;999.90;;;;;;;36.63;37.53;97663.88;5053797;28;20035;-80
2022/08/26 08:20:06;;;;;;;1999.90;999.90;;;;;;;37.01;36.27;97664.94;5053162;28;20036;-79
2022/08/26 08:22:31;;;;;;;1999.90;999.90;;;;;;;35.65;39.38;97652.66;5043575;28;20037;-81
2022/08/26 08:24:57;;;;;;;1999.90;999.90;;;;;;;37.24;35.70;97674.09;5052624;28;20032;-81
2022/08/26 08:27:22;;;;;;;1999.90;999.90;;;;;;;36.98;35.79;97662.22;5052428;28;20274;-81
2022/08/26 08:29:48;;;;;;;1999.90;999.90;;;;;;;34.69;39.57;97650.72;5052539;28;20040;-78
2022/08/26 08:32:14;;;;;;;1999.90;999.90;;;;;;;34.78;39.70;97659.31;5052608;28;20025;-81
2022/08/26 08:34:40;;;;;;;1999.90;999.90;;;;;;;34.58;40.30;97667.38;5052194;28;20108;-80
2022/08/26 08:37:05;;;;;;;1999.90;999.90;;;;;;;32.11;45.23;97646.88;5052575;28;20052;-81
2022/08/26 08:39:31;;;;;;;1999.90;999.90;;;;;;;30.84;48.88;97645.06;5052255;28;20025;-81
2022/08/26 08:42:04;;;;;;;1999.90;999.90;;;;;;;30.09;50.89;97642.16;5052915;28;20033;-80
2022/08/26 08:44:31;;;;;;;1999.90;999.90;;;;;;;31.13;48.73;97639.59;5051210;28;20538;-81
2022/08/26 08:47:03;;;;;;;1999.90;999.90;;;;;;;32.00;46.39;97641.47;5051894;28;20159;-82
2022/08/26 08:49:30;;;;;;;1999.90;999.90;;;;;;;31.48;47.29;97629.47;5052672;28;20392;-81
2022/08/26 08:52:12;;;;;;;1999.90;999.90;;;;;;;30.83;49.25;97625.72;5052563;28;20021;-79
2022/08/26 08:54:37;;;;;;;1999.90;999.90;;;;;;;30.83;49.93;97625.72;5052327;28;20029;-80
2022/08/26 08:57:30;;;;;;;1999.90;999.90;;;;;;;31.05;49.74;97627.66;5052370;28;20036;-79
2022/08/26 09:00:11;;;;;;;1999.90;999.90;;;;;;;34.30;42.29;97643.59;5052263;28;20040;-81
2022/08/26 09:03:07;;;;;;;1999.90;999.90;;;;;;;34.90;40.29;97638.50;5052168;28;20036;-81
2022/08/26 09:05:40;;;;;;;1999.90;999.90;;;;;;;35.10;39.69;97643.88;5050756;28;20442;-79
2022/08/26 09:08:10;;;;;;;1999.90;999.90;;;;;;;36.06;37.87;97640.72;5052049;28;20032;-79
2022/08/26 09:10:40;;;;;;;1999.90;999.90;;;;;;;36.12;37.99;97647.38;5052193;28;20060;-82
2022/08/26 09:13:11;;;;;;;1999.90;999.90;;;;;;;32.40;44.49;97639.16;5052132;28;20437;-79
2022/08/26 09:16:07;;;;;;;1999.90;999.90;;;;;;;29.60;51.60;97619.22;5050525;28;20021;-79
2022/08/26 09:18:54;;;;;;;1999.90;999.90;;;;;;;30.86;50.08;97624.84;5050617;28;20396;-81
2022/08/26 09:21:24;;;;;;;1999.90;999.90;;;;;;;33.45;43.78;97625.84;5051847;28;20043;-79
2022/08/26 09:23:51;;;;;;;1999.90;999.90;;;;;;;34.78;40.57;97630.06;5051869;28;20033;-80
2022/08/26 09:26:27;;;;;;;1999.90;999.90;;;;;;;35.38;39.00;97627.69;5051760;28;20025;-80
2022/08/26 09:29:01;;;;;;;1999.90;999.90;;;;;;;35.22;39.08;97625.09;5050375;28;20028;-81
2022/08/26 09:31:27;;;;;;;;;;;;;;;35.42;38.96;97626.31;5052222;28;20120;-80
2022/08/26 09:34:14;;;;;;;1999.90;999.90;;;;;;;34.09;41.54;97621.63;5051810;28;20881;-80
2022/08/26 09:36:43;;;;;;;1999.90;999.90;;;;;;;34.99;39.50;97608.56;5051470;28;20029;-76
2022/08/26 09:39:32;;;;;;;1999.90;999.90;;;;;;;35.11;38.74;97610.53;5050216;28;20030;-75
2022/08/26 09:42:18;;;;;;;1999.90;999.90;;;;;;;35.44;38.42;97614.44;5051976;28;20895;-75
2022/08/26 09:44:51;;;;;;;1999.90;999.90;;;;;;;34.50;40.13;97614.06;5042505;28;20056;-74
2022/08/26 09:47:22;;;;;;;1999.90;999.90;;;;;;;35.08;39.77;97612.25;5050118;28;20556;-75
2022/08/26 09:49:56;;;;;;;1999.90;999.90;;;;;;;34.68;40.48;97615.00;5050039;28;20104;-76
2022/08/26 09:52:24;;;;;;;1999.90;999.90;;;;;;;32.21;44.92;97612.56;5049747;28;20021;-75
2022/08/26 09:55:01;;;;;;;1999.90;999.90;;;;;;;29.56;52.56;97595.94;5051429;28;20104;-73
2022/08/26 09:57:29;;;;;;;1999.90;999.90;;;;;;;30.02;51.54;97594.31;5051232;28;20025;-74
2022/08/26 09:59:55;;;;;;;1999.90;999.90;;;;;;;32.57;45.78;97605.91;5049738;28;20025;-74
2022/08/26 10:02:32;;;;;;;1999.90;999.90;;;;;;;33.92;42.32;97598.28;5048166;28;20101;-74
2022/08/26 10:05:00;;;;;;;1999.90;999.90;;;;;;;33.32;43.51;97593.84;5050419;28;20043;-74
2022/08/26 10:07:38;;;;;;;1999.90;999.90;;;;;;;34.50;39.42;97600.66;5050500;28;20112;-73
2022/08/26 10:10:08;;;;;;;1999.90;999.90;;;;;;;32.70;43.61;97593.38;5050294;28;20021;-74
2022/08/26 10:12:37;;;;;;;1999.90;999.90;;;;;;;31.93;45.18;97587.84;5050500;28;20044;-74
2022/08/26 10:15:08;;;;;;;1999.90;999.90;;;;;;;33.09;42.94;97591.38;5049817;28;20079;-75
2022/08/26 10:17:42;;;;;;;1999.90;999.90;;;;;;;33.63;42.24;97583.50;5048853;28;20380;-75
2022/08/26 10:20:13;;;;;;;1999.90;999.90;;;;;;;33.06;43.62;97593.03;5053091;28;20166;-75
2022/08/26 10:22:52;;;;;;;1999.90;999.90;;;;;;;31.41;46.99;97570.25;5051319;28;20092;-75
2022/08/26 10:25:44;;;;;;;1999.90;999.90;;;;;;;30.41;49.75;97568.94;5050395;28;20021;-75
2022/08/26 10:28:35;;;;;;;1999.90;999.90;;;;;;;29.28;53.24;97559.78;5012090;28;20424;-74
2022/08/26 10:31:17;;;;;;;1999.90;999.90;;;;;;;32.05;46.67;97570.16;5035247;28;20021;-74
2022/08/26 10:33:42;;;;;;;1999.90;999.90;;;;;;;30.75;49.18;97563.72;5050330;28;20540;-75
2022/08/26 10:36:48;;;;;;;1999.90;999.90;;;;;;;29.05;53.87;97559.75;5050403;28;20064;-75
2022/08/26 10:39:06;;;;;;;1999.90;999.90;;;;;;;28.77;53.59;97552.53;5030213;28;20063;-72
2022/08/26 10:41:36;;;;;;;1999.90;999.90;;;;;;;29.52;51.55;97555.72;5040196;28;20111;-73
2022/08/26 10:44:06;;;;;;;1999.90;999.90;;;;;;;31.22;49.11;97557.78;5048654;28;20035;-74
2022/08/26 10:46:41;;;;;;;1999.90;999.90;;;;;;;30.85;51.69;97561.91;5049969;28;20115;-73
2022/08/26 10:49:16;;;;;;;1999.90;999.90;;;;;;;30.93;50.50;97552.00;5049981;28;20040;-75
2022/08/26 10:51:56;;;;;;;1999.90;999.90;;;;;;;30.84;50.63;97548.19;5050762;28;20324;-87
2022/08/26 10:54:21;;;;;;;1999.90;999.90;;;;;;;29.74;53.96;97547.66;5077526;28;20009;-91
2022/08/26 10:56:50;;;;;;;1999.90;999.90;;;;;;;29.84;54.43;97546.69;5090600;28;20024;-88
2022/08/26 10:59:38;;;;;;;1999.90;999.90;;;;;;;29.87;54.59;97548.66;5093343;28;20062;-86
2022/08/26 11:02:13;;;;;;;1999.90;999.90;;;;;;;29.19;56.45;97539.78;5081514;28;20098;-87